Minneola, Florida
Current Conditions -  °F | °C
As of 1:53 AM on Saturday 20 Dec 2014 (Local Time) from KLEE Reporting Station
Clear Clear  
Wind Chill: 57°   Ceiling: Unl
Heat Index: 57°   Visibility: 10mi
Dew Point: 51°   Wind: 5mph
Humidity: 81%   Direction: 150°SSE
Pressure: 30.07"   Gusts: NA
Location:  28.57°N, 81.75°W
Report Text: KLEE 200653Z AUTO 15004KT 10SM CLR 14/11 A3007 RMK AO2 SLP182 T01390106
Loading
Personal Weather Stations






























Interactive Weather Map New forecast layout! Learn more

10-Day Weather Forecast

Advertisements
Track Severe Weather on mobile